Time;durP1;ratioP1;P1;durP2;ratioP2;P2;SDS_P1;SDS_P2;PMS_P1;PMS_P2;Temp;Humidity;BMP_temperature;BMP_pressure;BME280_temperature;BME280_humidity;BME280_pressure;Samples;Min_cycle;Max_cycle;Signal;HPM_P1;HPM_P2
2023/03/08 00:01:21;;;;;;;1.40;0.40;;;;;;;-0.32;75.17;98043.50;4971101;28;20423;-73
2023/03/08 00:03:51;;;;;;;1.10;0.60;;;;;;;-0.32;75.25;98048.63;4971014;28;20063;-74
2023/03/08 00:06:18;;;;;;;2.13;0.17;;;;;;;-0.32;74.64;98043.50;4972420;28;20566;-73
2023/03/08 00:08:47;;;;;;;2.17;0.60;;;;;;;-0.32;74.77;98042.66;4971471;28;20430;-73
2023/03/08 00:11:14;;;;;;;5.82;0.80;;;;;;;-0.39;74.96;98020.56;4972606;28;20523;-73
2023/03/08 00:13:42;;;;;;;3.08;0.70;;;;;;;-0.29;75.12;98037.47;4970425;28;20414;-73
2023/03/08 00:16:12;;;;;;;1.52;0.40;;;;;;;-0.28;75.03;98029.75;4971105;28;20545;-73
2023/03/08 00:18:39;;;;;;;0.95;0.57;;;;;;;-0.29;74.95;98028.03;4971033;28;20057;-74
2023/03/08 00:21:08;;;;;;;4.10;0.50;;;;;;;-0.28;74.80;98029.75;4972227;28;20540;-73
2023/03/08 00:23:38;;;;;;;0.63;0.20;;;;;;;-0.26;74.82;98028.00;4970816;28;20769;-74
2023/03/08 00:26:05;;;;;;;1.27;0.30;;;;;;;-0.27;74.61;98026.31;4971453;28;20057;-73
2023/03/08 00:28:33;;;;;;;3.28;0.65;;;;;;;-0.26;75.45;98024.56;4969833;28;20050;-73
2023/03/08 00:31:03;;;;;;;3.35;0.30;;;;;;;-0.26;74.53;98030.59;4971437;28;20126;-74
2023/03/08 00:33:31;;;;;;;1.20;0.70;;;;;;;-0.35;74.91;98015.34;4971101;28;20478;-73
2023/03/08 00:35:59;;;;;;;1.45;0.60;;;;;;;-0.28;74.86;98010.97;4971979;28;20046;-74
2023/03/08 00:38:27;;;;;;;2.50;0.45;;;;;;;-0.28;74.92;98019.50;4971125;28;20411;-73
2023/03/08 00:40:54;;;;;;;2.55;0.47;;;;;;;-0.28;74.46;98022.06;4970971;28;20057;-74
2023/03/08 00:43:21;;;;;;;2.13;0.50;;;;;;;-0.28;74.99;98014.38;4971483;28;20061;-74
2023/03/08 00:45:48;;;;;;;0.68;0.20;;;;;;;-0.28;74.78;98014.38;4970585;28;20042;-73
2023/03/08 00:48:16;;;;;;;3.00;1.38;;;;;;;-0.32;74.93;98014.44;4971025;28;20559;-73
2023/03/08 00:50:44;;;;;;;3.65;0.50;;;;;;;-0.33;74.86;98015.31;4969797;28;20539;-74
2023/03/08 00:53:11;;;;;;;1.83;0.43;;;;;;;-0.32;75.06;98002.44;4970931;28;20142;-72
2023/03/08 00:55:38;;;;;;;3.15;0.15;;;;;;;-0.28;74.45;98016.94;4971065;28;20141;-72
2023/03/08 00:58:05;;;;;;;1.80;0.28;;;;;;;-0.28;74.43;98013.53;4968891;28;20061;-73
2023/03/08 01:00:32;;;;;;;0.75;0.40;;;;;;;-0.27;74.62;98012.63;4970689;28;20490;-74
2023/03/08 01:02:59;;;;;;;3.58;0.30;;;;;;;-0.30;74.35;98005.84;4971237;28;20074;-73
2023/03/08 01:05:27;;;;;;;3.05;0.20;;;;;;;-0.26;74.72;98019.44;4968012;28;20047;-73
2023/03/08 01:07:55;;;;;;;3.25;0.50;;;;;;;-0.27;74.86;98010.91;4970471;28;20126;-73
2023/03/08 01:10:22;;;;;;;3.15;0.43;;;;;;;-0.34;74.41;97993.09;4969945;28;20495;-73
2023/03/08 01:12:49;;;;;;;0.80;0.60;;;;;;;-0.27;74.38;98007.50;4970180;28;20142;-73
2023/03/08 01:15:16;;;;;;;2.05;0.60;;;;;;;-0.27;74.46;98010.06;4970539;28;20042;-73
2023/03/08 01:17:43;;;;;;;0.60;0.10;;;;;;;-0.32;74.16;97997.31;4968765;28;20051;-73
2023/03/08 01:20:11;;;;;;;2.97;0.65;;;;;;;-0.27;73.85;98004.94;4971117;28;20051;-73
2023/03/08 01:22:39;;;;;;;1.08;0.30;;;;;;;-0.29;74.32;98001.56;4966141;28;20065;-74
2023/03/08 01:25:06;;;;;;;0.55;0.30;;;;;;;-0.27;73.94;98007.50;4967688;28;20411;-73
2023/03/08 01:27:33;;;;;;;2.63;0.32;;;;;;;-0.36;73.76;97993.16;4966210;28;20467;-73
2023/03/08 01:30:00;;;;;;;1.90;0.20;;;;;;;-0.31;74.15;98014.44;4967045;28;20074;-75
2023/03/08 01:32:27;;;;;;;0.70;0.30;;;;;;;-0.35;73.89;97993.97;4969239;28;20078;-73
2023/03/08 01:34:55;;;;;;;1.05;0.40;;;;;;;-0.44;73.72;97982.19;4971230;28;20057;-73
2023/03/08 01:37:22;;;;;;;3.80;0.60;;;;;;;-0.37;74.37;97999.16;4971011;28;20063;-73
2023/03/08 01:39:50;;;;;;;2.10;0.43;;;;;;;-0.38;73.51;97997.44;4970418;28;20050;-73
2023/03/08 01:42:17;;;;;;;0.63;0.50;;;;;;;-0.46;73.31;97997.63;4971293;28;20080;-73
2023/03/08 01:44:52;;;;;;;3.60;0.77;;;;;;;-0.43;73.43;97999.25;4970709;28;20047;-73
2023/03/08 01:47:20;;;;;;;0.28;0.20;;;;;;;-0.44;73.39;97994.16;4968389;28;20110;-73
2023/03/08 01:49:48;;;;;;;1.08;0.28;;;;;;;-0.44;73.28;97997.56;4969588;28;20042;-73
2023/03/08 01:52:18;;;;;;;2.15;0.30;;;;;;;-0.44;73.37;97986.47;4965988;28;20623;-73
2023/03/08 01:54:48;;;;;;;0.90;0.20;;;;;;;-0.44;73.01;97992.44;4969699;28;20685;-73
2023/03/08 01:57:21;;;;;;;0.22;0.13;;;;;;;-0.46;72.89;97992.50;4969441;28;20055;-75
2023/03/08 01:59:50;;;;;;;2.40;0.30;;;;;;;-0.49;72.73;97989.94;4969476;28;20497;-73
2023/03/08 02:02:21;;;;;;;1.10;0.40;;;;;;;-0.54;72.11;97986.66;4968986;28;20051;-73
2023/03/08 02:04:48;;;;;;;1.00;0.30;;;;;;;-0.53;72.62;97993.47;4970083;28;20050;-73
2023/03/08 02:07:14;;;;;;;0.50;0.20;;;;;;;-0.56;72.64;97998.66;4968947;28;20072;-73
2023/03/08 02:09:42;;;;;;;2.40;0.40;;;;;;;-0.56;72.73;97990.13;4970516;28;20539;-73
2023/03/08 02:12:12;;;;;;;1.27;0.30;;;;;;;-0.57;72.71;98002.09;4969991;28;20047;-74
2023/03/08 02:14:42;;;;;;;2.10;0.30;;;;;;;-0.66;72.35;97986.00;4971884;28;20051;-74
2023/03/08 02:17:10;;;;;;;1.88;0.40;;;;;;;-0.64;72.62;97994.53;4973993;28;20078;-74
2023/03/08 02:19:44;;;;;;;1.83;0.40;;;;;;;-0.63;72.30;98006.47;4972667;28;20146;-73
2023/03/08 02:22:12;;;;;;;2.33;0.20;;;;;;;-0.64;72.06;97992.81;4974342;28;20061;-73
2023/03/08 02:24:41;;;;;;;2.85;1.35;;;;;;;-0.64;72.78;98008.19;4973482;28;20042;-74
2023/03/08 02:27:12;;;;;;;0.50;0.30;;;;;;;-0.72;72.42;97992.09;4974084;28;20051;-73
2023/03/08 02:29:39;;;;;;;0.45;0.30;;;;;;;-0.78;72.43;97982.81;4975293;28;20101;-73
2023/03/08 02:32:06;;;;;;;1.27;0.32;;;;;;;-0.71;72.15;97988.69;4972692;28;20050;-73
2023/03/08 02:34:33;;;;;;;2.25;0.30;;;;;;;-0.71;72.26;97997.22;4973923;28;20046;-73
2023/03/08 02:37:00;;;;;;;1.45;0.50;;;;;;;-0.74;72.65;97997.28;4973527;28;20043;-73
2023/03/08 02:39:27;;;;;;;2.17;0.50;;;;;;;-0.78;72.03;97994.78;4973267;28;20046;-74
2023/03/08 02:41:55;;;;;;;2.47;0.63;;;;;;;-0.76;72.30;98006.69;4974600;28;20131;-74
2023/03/08 02:44:22;;;;;;;0.30;0.20;;;;;;;-0.79;72.19;97981.13;4972043;28;20483;-73
2023/03/08 02:46:49;;;;;;;1.95;0.30;;;;;;;-0.79;72.01;98001.63;4974059;28;20043;-74
2023/03/08 02:49:16;;;;;;;1.85;0.63;;;;;;;-0.82;72.76;98001.69;4973554;28;20090;-73
2023/03/08 02:51:43;;;;;;;0.77;0.40;;;;;;;-0.79;72.32;98006.75;4973970;28;20051;-73
2023/03/08 02:54:10;;;;;;;0.90;0.50;;;;;;;-0.83;72.79;97999.13;4974193;28;20046;-74
2023/03/08 02:56:37;;;;;;;0.45;0.20;;;;;;;-0.82;71.97;98006.81;4973454;28;20730;-74
2023/03/08 02:59:06;;;;;;;0.80;0.30;;;;;;;-0.82;72.37;97995.72;4972219;28;20065;-74
2023/03/08 03:01:33;;;;;;;1.10;0.30;;;;;;;-0.85;72.21;98001.75;4972587;28;20133;-73
2023/03/08 03:03:59;;;;;;;0.80;0.38;;;;;;;-0.87;72.67;98018.84;4972277;28;20047;-73
2023/03/08 03:06:27;;;;;;;2.83;0.20;;;;;;;-0.87;72.17;98003.47;4975927;28;20050;-80
2023/03/08 03:08:54;;;;;;;0.90;0.20;;;;;;;-0.88;72.16;98003.47;4974529;28;20058;-75
2023/03/08 03:11:22;;;;;;;3.22;0.30;;;;;;;-0.89;71.88;98009.50;4974553;28;20070;-76
2023/03/08 03:13:54;;;;;;;4.47;0.30;;;;;;;-0.92;72.26;97995.00;4973152;28;20086;-75
2023/03/08 03:16:23;;;;;;;0.63;0.25;;;;;;;-0.92;72.32;98016.34;4973902;28;20049;-76
2023/03/08 03:18:50;;;;;;;0.63;0.28;;;;;;;-0.92;72.56;97995.84;4974423;28;20459;-75
2023/03/08 03:21:16;;;;;;;0.00;0.00;;;;;;;-0.93;71.73;98008.69;4973311;28;20042;-75
2023/03/08 03:23:43;;;;;;;1.67;0.30;;;;;;;-0.95;72.04;98011.28;4973514;28;20065;-76
2023/03/08 03:26:12;;;;;;;1.45;0.20;;;;;;;-0.96;72.11;97999.34;4972729;28;20806;-75
2023/03/08 03:28:40;;;;;;;0.22;0.10;;;;;;;-0.97;72.07;97991.66;4970488;28;20050;-75
2023/03/08 03:31:08;;;;;;;0.80;0.52;;;;;;;-0.98;71.93;98000.25;4971008;28;20053;-75
2023/03/08 03:33:38;;;;;;;1.85;0.25;;;;;;;-0.98;72.00;98002.81;4968673;28;20046;-76
2023/03/08 03:36:06;;;;;;;1.55;0.45;;;;;;;-0.99;72.08;98003.69;4970629;28;20074;-75
2023/03/08 03:38:33;;;;;;;3.22;0.30;;;;;;;-0.99;72.38;98008.81;4972582;28;20462;-75
2023/03/08 03:41:04;;;;;;;0.20;0.10;;;;;;;-1.07;72.08;97990.16;4969246;28;20051;-76
2023/03/08 03:43:31;;;;;;;1.13;0.50;;;;;;;-1.03;71.87;98007.16;4973025;28;20135;-75
2023/03/08 03:45:59;;;;;;;0.20;0.13;;;;;;;-1.04;71.71;98000.34;4971048;28;20500;-75
2023/03/08 03:48:26;;;;;;;1.27;0.17;;;;;;;-1.06;72.25;98013.16;4972892;28;20047;-75
2023/03/08 03:50:58;;;;;;;1.58;0.22;;;;;;;-1.14;72.21;97995.38;4967744;28;20679;-75
2023/03/08 03:53:25;;;;;;;0.52;0.40;;;;;;;-1.08;71.87;98017.50;4973352;28;20149;-75
2023/03/08 03:55:52;;;;;;;0.80;0.50;;;;;;;-1.08;72.44;98014.06;4969655;28;20043;-76
2023/03/08 03:58:19;;;;;;;1.52;0.30;;;;;;;-1.27;71.98;97983.63;4970829;28;20422;-76
2023/03/08 04:00:46;;;;;;;0.75;0.30;;;;;;;-1.11;72.68;98014.09;4967930;28;20045;-75
2023/03/08 04:03:13;;;;;;;1.58;0.35;;;;;;;-1.13;71.90;98012.44;4973118;28;20529;-75
2023/03/08 04:05:40;;;;;;;0.98;0.30;;;;;;;-1.13;71.94;98011.59;4971475;28;20101;-76
2023/03/08 04:08:08;;;;;;;0.70;0.30;;;;;;;-1.19;71.99;98007.41;4971159;28;20055;-75
2023/03/08 04:10:35;;;;;;;1.48;0.40;;;;;;;-1.18;72.39;98015.94;4971585;28;20051;-75
2023/03/08 04:13:02;;;;;;;0.30;0.10;;;;;;;-1.17;72.15;98015.94;4972169;28;20703;-75
2023/03/08 04:15:29;;;;;;;0.38;0.28;;;;;;;-1.19;71.67;98019.38;4972941;28;20051;-75
2023/03/08 04:17:56;;;;;;;1.83;0.38;;;;;;;-1.19;72.34;98032.19;4971683;28;20054;-76
2023/03/08 04:20:24;;;;;;;0.55;0.30;;;;;;;-1.24;72.36;98011.75;4973476;28;20101;-75
2023/03/08 04:22:51;;;;;;;0.38;0.20;;;;;;;-1.22;71.98;98032.22;4972446;28;20119;-76
2023/03/08 04:25:19;;;;;;;0.70;0.30;;;;;;;-1.24;72.33;98019.44;4971870;28;20057;-75
2023/03/08 04:27:46;;;;;;;0.85;0.25;;;;;;;-1.25;71.85;98027.13;4973068;28;20055;-75
2023/03/08 04:30:13;;;;;;;1.15;0.30;;;;;;;-1.26;72.27;98039.09;4970526;28;20736;-75
2023/03/08 04:32:40;;;;;;;0.95;0.28;;;;;;;-1.30;72.27;98034.91;4974872;28;20820;-75
2023/03/08 04:35:08;;;;;;;0.80;0.25;;;;;;;-1.29;72.43;98026.34;4970571;28;20046;-75
2023/03/08 04:37:36;;;;;;;0.35;0.17;;;;;;;-1.28;72.14;98025.50;4971539;28;20609;-74
2023/03/08 04:40:06;;;;;;;1.38;0.30;;;;;;;-1.30;72.37;98034.91;4972738;28;20542;-75
2023/03/08 04:42:34;;;;;;;0.50;0.32;;;;;;;-1.31;72.51;98035.78;4970067;28;20257;-75
2023/03/08 04:45:01;;;;;;;1.13;0.30;;;;;;;-1.31;72.53;98051.16;4972499;28;20149;-76
2023/03/08 04:47:28;;;;;;;1.55;0.30;;;;;;;-1.35;72.36;98031.56;4972653;28;20054;-75
2023/03/08 04:49:55;;;;;;;1.45;0.65;;;;;;;-1.37;72.59;98038.41;4970379;28;20047;-75
2023/03/08 04:52:22;;;;;;;0.50;0.20;;;;;;;-1.33;72.64;98045.19;4972520;28;20055;-75
2023/03/08 04:54:49;;;;;;;0.98;0.13;;;;;;;-1.33;72.55;98052.88;4969636;28;20949;-75
2023/03/08 04:57:15;;;;;;;0.52;0.20;;;;;;;-1.37;72.71;98043.53;4971914;28;20525;-75
2023/03/08 04:59:45;;;;;;;0.93;0.10;;;;;;;-1.39;72.83;98045.28;4971564;28;20069;-75
2023/03/08 05:02:12;;;;;;;0.52;0.28;;;;;;;-1.36;72.92;98058.88;4972012;28;20053;-75
2023/03/08 05:04:39;;;;;;;0.32;0.10;;;;;;;-1.53;72.80;98026.72;4970980;28;20057;-74
2023/03/08 05:07:06;;;;;;;1.00;0.20;;;;;;;-1.36;72.99;98052.91;4971632;28;20054;-75
2023/03/08 05:09:32;;;;;;;0.32;0.10;;;;;;;-1.39;72.60;98052.97;4971319;28;20125;-75
2023/03/08 05:11:59;;;;;;;0.75;0.30;;;;;;;-1.37;73.09;98061.44;4969791;28;20499;-76
2023/03/08 05:14:26;;;;;;;0.30;0.10;;;;;;;-1.44;72.83;98039.38;4969624;28;20057;-75
2023/03/08 05:16:56;;;;;;;1.88;0.10;;;;;;;-1.42;73.25;98053.84;4969344;28;20047;-75
2023/03/08 05:19:24;;;;;;;0.68;0.20;;;;;;;-1.39;73.29;98055.53;4971470;28;20506;-75
2023/03/08 05:21:51;;;;;;;0.13;0.10;;;;;;;-1.40;73.16;98064.06;4972876;28;20047;-80
2023/03/08 05:24:18;;;;;;;0.40;0.10;;;;;;;-1.42;73.20;98058.13;4971470;28;20089;-75
2023/03/08 05:26:45;;;;;;;0.50;0.20;;;;;;;-1.42;72.80;98063.25;4970290;28;20054;-75
2023/03/08 05:29:11;;;;;;;0.52;0.30;;;;;;;-1.41;72.85;98080.28;4970507;28;20057;-75
2023/03/08 05:31:38;;;;;;;0.93;0.93;;;;;;;-1.42;73.17;98063.25;4970993;28;20046;-75
2023/03/08 05:34:07;;;;;;;0.50;0.13;;;;;;;-1.44;72.93;98072.66;4968454;28;20629;-75
2023/03/08 05:36:34;;;;;;;2.92;0.40;;;;;;;-1.42;73.30;98073.50;4970584;28;20137;-75
2023/03/08 05:39:00;;;;;;;1.48;0.17;;;;;;;-1.43;73.47;98070.06;4969955;28;20049;-76
2023/03/08 05:41:27;;;;;;;0.57;0.20;;;;;;;-1.43;73.38;98074.34;4971762;28;20053;-77
2023/03/08 05:43:57;;;;;;;0.10;0.10;;;;;;;-1.49;73.24;98071.88;4969708;28;20058;-77
2023/03/08 05:46:24;;;;;;;0.80;0.13;;;;;;;-1.45;72.85;98076.94;4972705;28;20487;-77
2023/03/08 05:48:51;;;;;;;0.93;0.17;;;;;;;-1.45;72.98;98081.19;4973050;28;20054;-77
2023/03/08 05:51:19;;;;;;;0.30;0.20;;;;;;;-1.46;73.39;98084.63;4973905;28;20059;-78
2023/03/08 05:53:46;;;;;;;1.15;1.05;;;;;;;-1.46;73.26;98105.94;4969881;28;20111;-78
2023/03/08 05:56:15;;;;;;;0.73;0.20;;;;;;;-1.45;73.49;98101.66;4973733;28;20047;-76
2023/03/08 05:58:42;;;;;;;1.13;0.20;;;;;;;-1.46;73.38;98100.00;4972879;28;20053;-78
2023/03/08 06:01:12;;;;;;;0.20;0.13;;;;;;;-1.46;73.20;98102.53;4971627;28;20055;-77
2023/03/08 06:03:39;;;;;;;0.38;0.10;;;;;;;-1.46;73.38;98107.66;4975860;28;20169;-78
2023/03/08 06:06:06;;;;;;;0.82;0.25;;;;;;;-1.46;73.20;98110.22;4976567;28;20057;-76
2023/03/08 06:08:34;;;;;;;0.75;0.20;;;;;;;-1.50;73.32;98103.47;4973623;28;20047;-74
2023/03/08 06:11:01;;;;;;;0.38;0.20;;;;;;;-1.48;73.45;98112.81;4967801;28;20034;-74
2023/03/08 06:13:28;;;;;;;3.65;0.20;;;;;;;-1.47;73.54;98108.53;4969218;28;20061;-74
2023/03/08 06:15:55;;;;;;;0.30;0.10;;;;;;;-1.48;73.12;98119.63;4968120;28;20057;-75
2023/03/08 06:18:22;;;;;;;1.80;0.20;;;;;;;-1.50;73.48;98116.28;4970691;28;20392;-75
2023/03/08 06:20:59;;;;;;;0.13;0.10;;;;;;;-1.57;73.41;98107.81;4970336;28;20909;-74
2023/03/08 06:23:26;;;;;;;1.05;0.40;;;;;;;-1.51;73.55;98130.75;4968836;28;20049;-74
2023/03/08 06:25:54;;;;;;;1.73;0.20;;;;;;;-1.54;73.70;98114.59;4968275;28;20047;-74
2023/03/08 06:28:21;;;;;;;0.55;0.20;;;;;;;-1.54;74.38;98128.25;4967805;28;20053;-74
2023/03/08 06:30:49;;;;;;;1.17;0.20;;;;;;;-1.56;74.48;98124.88;4967129;28;20043;-74
2023/03/08 06:33:16;;;;;;;1.60;0.20;;;;;;;-1.58;74.05;98127.44;4966428;28;20050;-74
2023/03/08 06:35:44;;;;;;;0.47;0.20;;;;;;;-1.55;74.39;98143.63;4967026;28;20070;-74
2023/03/08 06:38:11;;;;;;;0.50;0.25;;;;;;;-1.65;74.54;98135.19;4966481;28;20047;-75
2023/03/08 06:40:37;;;;;;;0.40;0.10;;;;;;;-1.65;74.05;98136.06;4966734;28;20049;-75
2023/03/08 06:43:06;;;;;;;0.73;0.20;;;;;;;-1.58;74.39;98153.03;4965447;28;20046;-75
2023/03/08 06:45:33;;;;;;;0.10;0.10;;;;;;;-1.68;74.29;98130.13;4967612;28;20138;-75
2023/03/08 06:48:01;;;;;;;0.10;0.10;;;;;;;-1.60;73.88;98144.50;4965280;28;20039;-75
2023/03/08 06:50:27;;;;;;;0.15;0.10;;;;;;;-1.59;73.90;98150.50;4968206;28;20499;-75
2023/03/08 06:52:55;;;;;;;0.75;0.20;;;;;;;-1.56;73.94;98157.31;4965451;28;21333;-74
2023/03/08 06:55:22;;;;;;;0.28;0.10;;;;;;;-1.58;74.31;98147.91;4966979;28;20055;-74
2023/03/08 06:57:49;;;;;;;0.00;0.00;;;;;;;-1.55;74.20;98154.72;4969362;28;20110;-75
2023/03/08 07:00:19;;;;;;;0.40;0.25;;;;;;;-1.56;74.32;98163.28;4970712;28;20051;-75
2023/03/08 07:02:47;;;;;;;0.73;0.20;;;;;;;-1.56;74.21;98175.22;4974401;28;20053;-75
2023/03/08 07:05:14;;;;;;;0.50;0.20;;;;;;;-1.56;73.83;98181.19;4973701;28;20062;-75
2023/03/08 07:07:41;;;;;;;0.25;0.20;;;;;;;-1.55;74.39;98189.72;4973839;28;20412;-75
2023/03/08 07:10:10;;;;;;;0.75;0.30;;;;;;;-1.63;73.61;98170.16;4972529;28;20050;-76
2023/03/08 07:12:39;;;;;;;0.10;0.05;;;;;;;-1.56;74.02;98195.72;4972856;28;20081;-74
2023/03/08 07:15:07;;;;;;;0.28;0.20;;;;;;;-1.55;73.98;98202.50;4973050;28;20046;-71
2023/03/08 07:17:36;;;;;;;0.55;0.30;;;;;;;-1.55;74.10;98212.75;4973330;28;20046;-73
2023/03/08 07:20:05;;;;;;;1.67;0.20;;;;;;;-1.59;73.92;98196.59;4973275;28;20418;-72
2023/03/08 07:22:32;;;;;;;0.77;0.20;;;;;;;-1.55;74.07;98207.63;4973366;28;20051;-73
2023/03/08 07:24:59;;;;;;;1.05;0.20;;;;;;;-1.56;73.87;98216.19;4973545;28;20051;-77
2023/03/08 07:27:26;;;;;;;0.30;0.30;;;;;;;-1.56;73.59;98217.03;4974954;28;20047;-77
2023/03/08 07:29:53;;;;;;;0.52;0.38;;;;;;;-1.56;74.05;98224.72;4976527;28;20161;-78
2023/03/08 07:32:22;;;;;;;1.45;0.20;;;;;;;-1.56;74.00;98223.88;4974883;28;20054;-77
2023/03/08 07:34:50;;;;;;;0.32;0.10;;;;;;;-1.55;73.70;98231.50;4976000;28;20051;-77
2023/03/08 07:37:17;;;;;;;0.70;0.20;;;;;;;-1.65;73.46;98219.66;4976186;28;20442;-77
2023/03/08 07:39:44;;;;;;;0.45;0.20;;;;;;;-1.72;73.74;98216.34;4976068;28;20135;-77
2023/03/08 07:42:11;;;;;;;0.40;0.20;;;;;;;-1.53;73.77;98257.09;4975892;28;20057;-77
2023/03/08 07:44:38;;;;;;;1.05;0.30;;;;;;;-1.53;74.07;98252.00;4975233;28;20138;-77
2023/03/08 07:47:06;;;;;;;0.45;0.10;;;;;;;-1.53;73.92;98260.50;4975542;28;20133;-77
2023/03/08 07:49:33;;;;;;;2.88;0.10;;;;;;;-1.54;73.56;98263.06;4975404;28;20053;-77
2023/03/08 07:52:02;;;;;;;0.77;0.30;;;;;;;-1.55;73.68;98269.06;4975720;28;20046;-76
2023/03/08 07:54:29;;;;;;;0.38;0.28;;;;;;;-1.55;73.48;98274.19;4974461;28;20510;-77
2023/03/08 07:56:56;;;;;;;0.95;0.30;;;;;;;-1.55;73.72;98269.06;4974633;28;20137;-77
2023/03/08 07:59:23;;;;;;;0.32;0.17;;;;;;;-1.56;73.62;98277.63;4974726;28;20499;-77
2023/03/08 08:01:50;;;;;;;2.35;0.30;;;;;;;-1.54;73.57;98281.00;4974978;28;20046;-77
2023/03/08 08:04:17;;;;;;;0.35;0.30;;;;;;;-1.58;73.68;98288.72;4974623;28;20062;-77
2023/03/08 08:06:44;;;;;;;1.17;0.20;;;;;;;-1.63;73.89;98274.25;4974383;28;20045;-78
2023/03/08 08:09:14;;;;;;;0.20;0.10;;;;;;;-1.53;73.54;98303.19;4970905;28;20060;-77
2023/03/08 08:11:41;;;;;;;0.17;0.10;;;;;;;-1.57;73.76;98292.09;4973419;28;20414;-78
2023/03/08 08:14:08;;;;;;;1.27;0.10;;;;;;;-1.55;73.43;98292.09;4973199;28;20384;-77
2023/03/08 08:16:35;;;;;;;0.32;0.10;;;;;;;-1.62;73.73;98287.06;4974863;28;20054;-77
2023/03/08 08:19:02;;;;;;;0.20;0.13;;;;;;;-1.56;73.59;98313.47;4973230;28;20073;-77
2023/03/08 08:21:29;;;;;;;0.30;0.20;;;;;;;-1.58;73.74;98309.19;4975626;28;20051;-77
2023/03/08 08:23:56;;;;;;;2.03;0.30;;;;;;;-1.58;73.45;98313.47;4972439;28;20057;-77
2023/03/08 08:26:25;;;;;;;0.20;0.20;;;;;;;-1.55;73.80;98312.59;4974827;28;20047;-77
2023/03/08 08:28:53;;;;;;;1.45;0.30;;;;;;;-1.54;73.77;98327.06;4974240;28;20043;-77
2023/03/08 08:31:21;;;;;;;0.35;0.22;;;;;;;-1.53;73.58;98331.34;4975217;28;20050;-77
2023/03/08 08:33:48;;;;;;;0.95;0.30;;;;;;;-1.54;73.20;98335.59;4973496;28;20054;-77
2023/03/08 08:36:17;;;;;;;0.38;0.17;;;;;;;-1.55;73.49;98328.78;4973910;28;20049;-77
2023/03/08 08:38:45;;;;;;;0.15;0.10;;;;;;;-1.52;73.56;98333.03;4974056;28;20057;-77
2023/03/08 08:41:15;;;;;;;0.38;0.20;;;;;;;-1.53;73.78;98337.31;4973322;28;20117;-76
2023/03/08 08:43:44;;;;;;;0.60;0.30;;;;;;;-1.52;73.55;98350.97;4973989;28;20093;-77
2023/03/08 08:46:12;;;;;;;0.70;0.30;;;;;;;-1.51;73.65;98356.06;4974366;28;20054;-78
2023/03/08 08:48:40;;;;;;;0.52;0.20;;;;;;;-1.71;73.49;98325.50;4973542;28;20047;-77
2023/03/08 08:51:08;;;;;;;0.40;0.30;;;;;;;-1.49;73.63;98363.72;4971165;28;20101;-78
2023/03/08 08:53:36;;;;;;;0.35;0.10;;;;;;;-1.58;73.24;98362.09;4972661;28;20077;-77
2023/03/08 08:56:11;;;;;;;1.10;0.22;;;;;;;-1.49;73.49;98381.66;4973612;28;20043;-77
2023/03/08 08:58:38;;;;;;;;;;;;;;;-1.49;73.19;98379.94;4973592;28;20109;-77
2023/03/08 09:01:13;;;;;;;0.17;0.13;;;;;;;-1.52;73.21;98384.25;4974035;28;19926;-77
2023/03/08 09:03:40;;;;;;;;;;;;;;;-1.49;73.19;98392.75;4974285;28;20046;-77
2023/03/08 09:06:07;;;;;;;0.52;0.20;;;;;;;-1.48;73.31;98393.59;4973313;28;19929;-78
2023/03/08 09:08:34;;;;;;;0.30;0.00;;;;;;;-1.49;73.61;98407.25;4973044;28;20046;-76
2023/03/08 09:11:04;;;;;;;2.13;0.30;;;;;;;-1.48;73.67;98409.81;4972877;28;20043;-77
2023/03/08 09:13:30;;;;;;;0.20;0.20;;;;;;;-1.49;73.42;98414.94;4972314;28;20457;-77
2023/03/08 09:15:57;;;;;;;0.50;0.40;;;;;;;-1.52;73.45;98404.72;4973129;28;20046;-77
2023/03/08 09:18:26;;;;;;;0.70;0.30;;;;;;;-1.46;73.39;98422.59;4973616;28;20046;-77
2023/03/08 09:20:53;;;;;;;0.55;0.20;;;;;;;-1.47;73.09;98416.63;4972798;28;20043;-76
2023/03/08 09:23:20;;;;;;;0.38;0.20;;;;;;;-1.49;73.13;98414.94;4973518;28;20078;-76
2023/03/08 09:25:55;;;;;;;1.38;0.17;;;;;;;-1.44;73.50;98419.16;4972505;28;20211;-79
2023/03/08 09:28:22;;;;;;;0.82;0.20;;;;;;;-1.44;73.41;98436.25;4969346;28;20206;-78
2023/03/08 09:30:49;;;;;;;0.35;0.20;;;;;;;-1.42;73.53;98429.41;4971735;28;20509;-70
2023/03/08 09:33:16;;;;;;;0.65;0.20;;;;;;;-1.44;73.29;98436.25;4970408;28;20043;-70
2023/03/08 09:35:44;;;;;;;0.63;0.10;;;;;;;-1.43;73.29;98443.06;4970411;28;20062;-71
2023/03/08 09:38:11;;;;;;;0.57;0.22;;;;;;;-1.40;73.38;98437.91;4970543;28;20057;-70
2023/03/08 09:40:48;;;;;;;2.25;0.77;;;;;;;-1.40;73.07;98449.00;4970369;28;20526;-70
2023/03/08 09:43:27;;;;;;;1.35;0.30;;;;;;;-1.43;73.38;98441.34;4969863;28;20043;-72
2023/03/08 09:45:54;;;;;;;0.80;0.40;;;;;;;-1.38;73.02;98456.69;4971549;28;20047;-73
2023/03/08 09:48:26;;;;;;;0.80;0.25;;;;;;;-1.42;72.97;98458.41;4970346;28;20129;-75
2023/03/08 09:50:59;;;;;;;0.60;0.30;;;;;;;-1.37;72.94;98469.47;4970917;28;20054;-75
2023/03/08 09:53:32;;;;;;;0.95;0.32;;;;;;;-1.36;73.15;98475.44;4969832;28;20046;-75
2023/03/08 09:56:04;;;;;;;0.10;0.10;;;;;;;-1.36;72.78;98470.31;4972673;28;20042;-76
2023/03/08 09:58:40;;;;;;;1.02;0.20;;;;;;;-1.36;73.05;98486.53;4971216;28;20410;-77
2023/03/08 10:01:25;;;;;;;1.13;0.40;;;;;;;-1.37;73.28;98484.84;4972575;28;20070;-74
2023/03/08 10:04:21;;;;;;;1.02;0.20;;;;;;;-1.36;72.96;98494.22;4971930;28;20054;-75
2023/03/08 10:07:00;;;;;;;0.52;0.35;;;;;;;-1.36;73.18;98501.06;4970882;28;20427;-74
2023/03/08 10:09:32;;;;;;;0.55;0.25;;;;;;;-1.39;72.98;98501.94;4970391;28;20051;-75
2023/03/08 10:12:11;;;;;;;2.63;0.32;;;;;;;-1.39;73.02;98508.75;4970205;28;20458;-72
2023/03/08 10:14:42;;;;;;;0.65;0.30;;;;;;;-1.37;72.76;98512.13;4970579;28;20053;-73
2023/03/08 10:17:13;;;;;;;0.43;0.20;;;;;;;-1.33;72.76;98518.97;4971189;28;20047;-73
2023/03/08 10:19:43;;;;;;;0.75;0.20;;;;;;;-1.34;72.41;98531.75;4969271;28;20525;-73
2023/03/08 10:22:25;;;;;;;1.17;0.40;;;;;;;-1.32;72.99;98533.44;4969833;28;20053;-73
2023/03/08 10:25:00;;;;;;;0.70;0.20;;;;;;;-1.30;72.48;98539.44;4970079;28;20050;-72
2023/03/08 10:27:32;;;;;;;0.88;0.35;;;;;;;-1.32;72.74;98541.13;4969952;28;20063;-73
2023/03/08 10:30:01;;;;;;;2.65;0.38;;;;;;;-1.31;72.52;98553.09;4967255;28;20495;-73
2023/03/08 10:32:29;;;;;;;1.58;0.40;;;;;;;-1.30;72.74;98547.09;4970549;28;20069;-72
2023/03/08 10:35:01;;;;;;;2.72;0.20;;;;;;;-1.28;72.75;98555.66;4971884;28;20514;-74
2023/03/08 10:37:33;;;;;;;0.40;0.15;;;;;;;-1.33;72.48;98552.25;4974165;28;20065;-73
2023/03/08 10:40:04;;;;;;;0.30;0.20;;;;;;;-1.29;72.34;98560.75;4974297;28;20384;-72
2023/03/08 10:42:33;;;;;;;1.25;0.30;;;;;;;-1.26;72.87;98579.50;4972007;28;20097;-75
2023/03/08 10:45:03;;;;;;;1.30;0.32;;;;;;;-1.25;72.38;98576.13;4973574;28;20487;-72
2023/03/08 10:47:32;;;;;;;1.08;0.20;;;;;;;-1.24;72.57;98577.81;4972849;28;20051;-74
2023/03/08 10:50:12;;;;;;;0.70;0.55;;;;;;;-1.28;72.37;98571.00;4973813;28;20384;-74
2023/03/08 10:52:40;;;;;;;0.68;0.20;;;;;;;-1.30;72.43;98577.84;4973990;28;20050;-72
2023/03/08 10:55:12;;;;;;;0.55;0.30;;;;;;;-1.22;72.71;98585.50;4973378;28;20495;-73
2023/03/08 10:57:42;;;;;;;1.38;0.20;;;;;;;-1.23;72.21;98584.63;4974844;28;20626;-73
2023/03/08 11:00:33;;;;;;;1.00;0.40;;;;;;;-1.20;72.29;98605.09;4973287;28;20057;-73
2023/03/08 11:03:13;;;;;;;0.60;0.30;;;;;;;-1.26;72.11;98579.50;4972700;28;20133;-71
2023/03/08 11:05:50;;;;;;;0.30;0.15;;;;;;;-1.16;72.31;98605.94;4974397;28;20122;-74
2023/03/08 11:08:22;;;;;;;0.40;0.30;;;;;;;-1.17;72.42;98606.78;4972926;28;20049;-73
2023/03/08 11:10:59;;;;;;;0.65;0.28;;;;;;;-1.14;72.61;98614.44;4971308;28;20057;-74
2023/03/08 11:13:30;;;;;;;0.60;0.60;;;;;;;-1.18;72.30;98616.19;4973614;28;20053;-74
2023/03/08 11:16:06;;;;;;;0.40;0.15;;;;;;;-1.11;71.90;98611.00;4974957;28;20055;-74
2023/03/08 11:18:46;;;;;;;0.73;0.20;;;;;;;-1.14;72.48;98609.31;4973460;28;20418;-74
2023/03/08 11:21:23;;;;;;;0.60;0.40;;;;;;;-1.10;72.54;98625.56;4972230;28;20055;-75
2023/03/08 11:24:02;;;;;;;0.50;0.20;;;;;;;-1.13;72.60;98627.25;4972985;28;20049;-73
2023/03/08 11:26:39;;;;;;;0.38;0.20;;;;;;;-1.07;72.41;98641.75;4973592;28;20050;-73
2023/03/08 11:29:19;;;;;;;1.85;0.28;;;;;;;-1.04;72.05;98646.84;4972793;28;20051;-73
2023/03/08 11:31:54;;;;;;;1.15;0.28;;;;;;;-1.02;72.30;98649.41;4972862;28;20073;-74
2023/03/08 11:34:46;;;;;;;0.50;0.20;;;;;;;-1.09;72.29;98642.63;4972999;28;20054;-73
2023/03/08 11:37:19;;;;;;;0.65;0.13;;;;;;;-0.98;71.64;98658.78;4973161;28;20047;-73
2023/03/08 11:39:53;;;;;;;0.40;0.28;;;;;;;-0.99;72.03;98660.50;4971605;28;20051;-73
2023/03/08 11:42:32;;;;;;;5.33;0.30;;;;;;;-0.98;72.10;98669.03;4972631;28;20047;-73